メインページ
METAR-TAF:

METAR-TAF

空港 :

ベレン, パラー州, ブラジル

緯度: 01-23S, 経度: 048-29W, 海抜: 16m

現時点の気象観測

当レポートは32分前の15:00(UTC)に作成
北/北西の風 6kt
気温 30°C
湿度 66%
気圧 1013 hPa
視程10km以上
高度4000ftの雲はほとんどない

METAR: SBBE 251500Z 34006KT 9999 FEW040 30/23 Q1013

時間: 12:32 (15:32 UTC)

予報

当レポートは5時間32分前の10:00(UTC)に作成
予報は25日の 12時(UTC)から 26日の 12時(UTC)まで有効
の風 8kt
視程10km以上
高度1500ftの雲はほとんどない
25日の 13時(UTC)から 25日の 15時(UTC)まで徐々に
南東の風 8kt
高度2500ftの雲は散在している
25日の 18時(UTC)から 25日の 20時(UTC)まで徐々に
東/北東の風 5kt
高度2000ftの雲は散在している
高度3000ftの雲はほとんどない, 塔状積雲.
高度3000ftの雲はほとんどない

TAF: SBBE 251000Z 2512/2612 09008KT 9999 FEW015 TX32/2516Z TN24/2606Z BECMG 2513/2515 13008KT SCT025 BECMG 2518/2520 03008KT SCT020 FEW030TCU BE CMG 2521/2523 06005KT FEW030 RMK PEO

4,000以上の空港の気象観測と天気予報(METAR報とTAF報)

利用可能な観測所は地図上に黄色い丸と赤い丸で示す。

丸の上にカーソルを重ねると観測所名を参照できる。

次にクリックすると気象観測と天気予報を参照できる。

マップの切り替え:黒色「×」印の緑ボタンをクリックして拡大、「-」印の緑ボタンをクリックして縮小、緑色の三角印をクリックして隣りの地図に切り替え


METAR-TAF: